Time;durP1;ratioP1;P1;durP2;ratioP2;P2;SDS_P1;SDS_P2;PMS_P1;PMS_P2;Temp;Humidity;BMP_temperature;BMP_pressure;BME280_temperature;BME280_humidity;BME280_pressure;Samples;Min_cycle;Max_cycle;Signal;HPM_P1;HPM_P2
2022/11/13 00:00:56;;;;;;;6.47;5.87;;;;;;;9.82;67.82;96295.22;4930090;29;20206;-67
2022/11/13 00:03:22;;;;;;;7.23;6.47;;;;;;;9.93;67.46;96289.97;4928659;29;20223;-67
2022/11/13 00:05:48;;;;;;;6.40;5.80;;;;;;;9.72;68.04;96292.44;4928746;29;20196;-67
2022/11/13 00:08:13;;;;;;;6.27;5.77;;;;;;;9.74;68.11;96292.34;4931235;29;20288;-67
2022/11/13 00:10:39;;;;;;;6.57;5.93;;;;;;;9.73;67.83;96293.28;4932910;29;20677;-68
2022/11/13 00:13:10;;;;;;;6.70;6.10;;;;;;;9.70;67.92;96285.63;4927919;29;20784;-67
2022/11/13 00:15:35;;;;;;;7.40;6.60;;;;;;;9.70;68.04;96288.25;4927323;29;20218;-67
2022/11/13 00:18:02;;;;;;;6.87;6.17;;;;;;;9.69;68.12;96291.84;4928619;29;20190;-68
2022/11/13 00:20:27;;;;;;;7.27;6.60;;;;;;;9.64;68.59;96286.09;4931535;29;20197;-68
2022/11/13 00:22:53;;;;;;;7.70;7.00;;;;;;;9.64;68.68;96283.47;4933007;29;20197;-68
2022/11/13 00:25:18;;;;;;;6.80;6.20;;;;;;;9.56;68.83;96286.66;4931091;29;20208;-68
2022/11/13 00:27:44;;;;;;;8.03;7.23;;;;;;;9.79;68.14;96284.13;4927110;29;20214;-68
2022/11/13 00:30:09;;;;;;;7.83;7.03;;;;;;;9.73;68.29;96280.16;4929198;29;20280;-68
2022/11/13 00:32:36;;;;;;;7.90;7.10;;;;;;;9.71;68.40;96274.19;4931556;29;20720;-68
2022/11/13 00:35:03;;;;;;;7.43;6.53;;;;;;;9.68;68.62;96275.25;4929034;29;20258;-68
2022/11/13 00:37:28;;;;;;;8.00;6.37;;;;;;;9.69;68.70;96282.16;4930395;29;20213;-69
2022/11/13 00:39:53;;;;;;;7.87;7.10;;;;;;;9.69;68.77;96274.28;4932113;29;20182;-67
2022/11/13 00:42:23;;;;;;;7.53;6.83;;;;;;;9.78;68.41;96277.16;4932238;29;20312;-68
2022/11/13 00:44:48;;;;;;;8.10;7.03;;;;;;;9.75;68.57;96264.28;4928518;29;20281;-68
2022/11/13 00:47:14;;;;;;;8.70;7.70;;;;;;;9.74;68.21;96265.22;4931569;29;20272;-67
2022/11/13 00:49:39;;;;;;;8.13;7.23;;;;;;;9.71;68.18;96261.03;4931578;29;20189;-67
2022/11/13 00:52:05;;;;;;;7.93;7.23;;;;;;;9.74;68.38;96270.50;4931567;29;20506;-67
2022/11/13 00:54:30;;;;;;;7.87;7.07;;;;;;;9.64;68.49;96265.91;4930915;29;20202;-67
2022/11/13 00:56:55;;;;;;;7.70;7.00;;;;;;;9.78;68.25;96274.53;4924727;29;20233;-67
2022/11/13 00:59:21;;;;;;;8.47;7.33;;;;;;;9.74;68.41;96266.06;4926290;29;20237;-67
2022/11/13 01:01:46;;;;;;;7.47;6.87;;;;;;;9.74;68.64;96267.84;4926568;29;20194;-68
2022/11/13 01:04:12;;;;;;;8.10;7.30;;;;;;;9.74;68.53;96263.44;4931945;29;20736;-68
2022/11/13 01:06:37;;;;;;;8.30;7.33;;;;;;;9.69;68.65;96261.16;4932818;29;20667;-67
2022/11/13 01:09:02;;;;;;;8.20;7.37;;;;;;;9.78;68.54;96267.50;4927294;29;20213;-67
2022/11/13 01:11:29;;;;;;;8.20;7.40;;;;;;;9.70;68.62;96259.34;4927486;29;20197;-67
2022/11/13 01:13:55;;;;;;;7.43;6.73;;;;;;;9.79;68.70;96258.69;4926687;29;20189;-67
2022/11/13 01:16:24;;;;;;;8.07;7.37;;;;;;;9.84;67.88;96272.31;4927235;29;20323;-66
2022/11/13 01:18:54;;;;;;;8.20;7.50;;;;;;;9.75;68.75;96266.91;4932281;29;20173;-66
2022/11/13 01:21:22;;;;;;;8.50;7.70;;;;;;;9.75;68.54;96269.53;4928895;29;20924;-66
2022/11/13 01:23:48;;;;;;;8.60;7.53;;;;;;;9.72;68.85;96268.78;4925966;29;20245;-66
2022/11/13 01:26:23;;;;;;;8.17;7.37;;;;;;;9.71;68.66;96263.69;4933110;29;21157;-67
2022/11/13 01:28:49;;;;;;;8.80;7.90;;;;;;;9.82;68.36;96258.44;4928824;29;20236;-67
2022/11/13 01:31:17;;;;;;;8.37;7.57;;;;;;;9.83;67.90;96259.28;4933718;29;20597;-66
2022/11/13 01:33:44;;;;;;;8.37;7.60;;;;;;;9.83;68.26;96267.16;4930678;29;20586;-67
2022/11/13 01:36:12;;;;;;;8.80;8.00;;;;;;;9.81;68.22;96263.78;4943492;29;20548;-68
2022/11/13 01:38:38;;;;;;;8.77;7.97;;;;;;;9.74;68.29;96257.34;4933598;29;20173;-68
2022/11/13 01:41:05;;;;;;;8.87;7.83;;;;;;;9.75;68.46;96259.84;4931776;29;20204;-67
2022/11/13 01:43:36;;;;;;;8.40;7.33;;;;;;;9.78;68.32;96249.09;4936151;29;20255;-67
2022/11/13 01:46:37;;;;;;;8.60;7.90;;;;;;;9.67;68.59;96247.28;4935239;29;20189;-68
2022/11/13 01:49:11;;;;;;;9.40;8.47;;;;;;;9.78;68.11;96243.84;4895210;29;20821;-68
2022/11/13 01:51:45;;;;;;;8.33;7.47;;;;;;;9.78;68.41;96232.50;4892957;29;20658;-67
2022/11/13 01:54:16;;;;;;;11.70;8.33;;;;;;;9.81;68.22;96243.63;4892621;29;20203;-68
2022/11/13 01:56:42;;;;;;;9.87;8.70;;;;;;;9.71;68.42;96235.63;4897420;29;20214;-69
2022/11/13 01:59:19;;;;;;;9.50;8.50;;;;;;;9.68;68.32;96243.72;4901884;29;20251;-71
2022/11/13 02:01:44;;;;;;;9.07;8.27;;;;;;;9.66;68.49;96240.38;4895175;29;20740;-68
2022/11/13 02:04:10;;;;;;;9.07;8.20;;;;;;;9.59;68.32;96236.53;4898717;29;20226;-69
2022/11/13 02:06:41;;;;;;;8.80;7.90;;;;;;;9.58;68.88;96242.75;4895019;29;20203;-68
2022/11/13 02:09:08;;;;;;;9.33;8.37;;;;;;;9.57;68.66;96240.22;4898993;29;20760;-72
2022/11/13 02:11:36;;;;;;;9.53;8.03;;;;;;;9.57;68.93;96248.97;4895814;29;20217;-68
2022/11/13 02:14:02;;;;;;;8.77;7.97;;;;;;;9.66;68.69;96248.25;4897198;29;20193;-69
2022/11/13 02:16:31;;;;;;;8.77;7.90;;;;;;;9.64;68.60;96247.53;4894805;29;20187;-68
2022/11/13 02:18:56;;;;;;;8.73;7.93;;;;;;;9.71;68.30;96247.91;4896718;29;20194;-69
2022/11/13 02:21:44;;;;;;;8.77;7.97;;;;;;;9.66;68.38;96244.78;4894645;29;20685;-68
2022/11/13 02:24:19;;;;;;;7.70;6.97;;;;;;;9.69;68.50;96249.81;4894276;29;20295;-66
2022/11/13 02:26:44;;;;;;;7.73;7.03;;;;;;;9.61;68.78;96239.88;4930425;29;20217;-68
2022/11/13 02:29:10;;;;;;;8.10;7.40;;;;;;;9.75;68.33;96238.00;4930875;29;20268;-67
2022/11/13 02:31:35;;;;;;;8.43;7.57;;;;;;;9.82;68.19;96244.47;4927292;29;20242;-67
2022/11/13 02:34:01;;;;;;;7.80;7.07;;;;;;;9.77;68.23;96241.34;4926611;29;20279;-67
2022/11/13 02:36:28;;;;;;;8.27;7.57;;;;;;;9.72;68.44;96234.66;4932762;29;20261;-67
2022/11/13 02:38:57;;;;;;;8.13;7.43;;;;;;;9.77;68.45;96238.72;4928785;29;20186;-67
2022/11/13 02:41:23;;;;;;;7.77;6.97;;;;;;;9.69;68.71;96229.63;4933446;29;20543;-67
2022/11/13 02:43:48;;;;;;;8.47;7.60;;;;;;;9.77;68.45;96236.94;4931710;29;20225;-68
2022/11/13 02:46:14;;;;;;;8.13;7.33;;;;;;;9.73;68.64;96232.88;4932904;29;20292;-67
2022/11/13 02:48:39;;;;;;;7.90;7.13;;;;;;;9.80;68.39;96239.31;4948037;29;20264;-67
2022/11/13 02:51:05;;;;;;;8.83;7.97;;;;;;;9.82;68.25;96226.09;4933668;29;20198;-68
2022/11/13 02:53:30;;;;;;;9.03;8.20;;;;;;;9.75;68.41;96232.75;4932393;29;20189;-68
2022/11/13 02:55:55;;;;;;;8.27;7.47;;;;;;;9.75;68.67;96238.00;4933687;29;20186;-68
2022/11/13 02:58:21;;;;;;;9.27;8.37;;;;;;;9.77;68.69;96241.34;4927672;29;20257;-68
2022/11/13 03:00:46;;;;;;;10.47;8.47;;;;;;;9.80;68.27;96241.94;4928535;29;20716;-68
2022/11/13 03:03:12;;;;;;;9.37;8.03;;;;;;;9.91;67.97;96249.00;4935776;29;20895;-68
2022/11/13 03:05:37;;;;;;;9.70;8.73;;;;;;;9.89;67.73;96245.66;4932550;29;20248;-68
2022/11/13 03:08:03;;;;;;;9.67;8.63;;;;;;;9.81;68.22;96243.63;4933460;29;20775;-68
2022/11/13 03:10:28;;;;;;;9.20;8.23;;;;;;;9.76;68.18;96237.06;4933457;29;20276;-67
2022/11/13 03:12:54;;;;;;;9.30;8.50;;;;;;;9.82;68.13;96250.56;4934724;29;20189;-67
2022/11/13 03:15:19;;;;;;;9.70;8.77;;;;;;;9.79;68.29;96250.78;4933401;29;20204;-67
2022/11/13 03:17:44;;;;;;;9.73;8.83;;;;;;;9.84;68.40;96253.09;4933247;29;20691;-70
2022/11/13 03:20:10;;;;;;;9.93;8.97;;;;;;;9.79;68.04;96250.78;4928504;29;20565;-69
2022/11/13 03:22:35;;;;;;;10.00;9.00;;;;;;;9.75;68.48;96248.50;4931598;29;20599;-69
2022/11/13 03:25:01;;;;;;;10.13;9.13;;;;;;;9.72;68.71;96252.19;4928977;29;20212;-69
2022/11/13 03:27:26;;;;;;;10.73;9.70;;;;;;;9.80;68.54;96244.56;4930554;29;20192;-68
2022/11/13 03:29:52;;;;;;;10.03;9.03;;;;;;;9.83;68.69;96248.75;4932285;29;20283;-69
2022/11/13 03:32:17;;;;;;;9.87;8.97;;;;;;;9.83;68.54;96254.00;4930824;29;20189;-68
2022/11/13 03:34:43;;;;;;;9.77;8.77;;;;;;;9.88;68.27;96250.06;4933340;29;20278;-69
2022/11/13 03:37:08;;;;;;;9.70;8.80;;;;;;;9.91;67.98;96251.63;4932213;29;20273;-69
2022/11/13 03:39:33;;;;;;;10.30;9.40;;;;;;;9.90;68.21;96257.84;4935370;29;20206;-69
2022/11/13 03:41:59;;;;;;;9.67;8.77;;;;;;;9.88;68.32;96251.88;4928407;29;20230;-67
2022/11/13 03:44:24;;;;;;;9.93;9.03;;;;;;;9.95;68.04;96258.34;4934207;29;20198;-68
2022/11/13 03:46:50;;;;;;;9.93;8.80;;;;;;;9.98;68.16;96260.72;4925515;29;20197;-68
2022/11/13 03:49:15;;;;;;;9.87;8.97;;;;;;;9.92;68.53;96254.16;4931012;29;20216;-69
2022/11/13 03:51:43;;;;;;;9.30;8.40;;;;;;;9.95;68.24;96253.09;4932061;29;20194;-68
2022/11/13 03:54:09;;;;;;;10.43;9.43;;;;;;;9.95;68.39;96258.34;4932594;29;20688;-68
2022/11/13 04:09:14;;;;;;;10.07;9.07;;;;;;;10.11;67.81;96256.22;5103778;27;20549;-68
2022/11/13 04:11:40;;;;;;;9.43;8.57;;;;;;;9.99;68.17;96264.19;5085111;28;20195;-71
2022/11/13 04:14:05;;;;;;;9.63;8.63;;;;;;;10.01;68.38;96244.72;5078314;28;20294;-72
2022/11/13 04:16:31;;;;;;;11.97;10.20;;;;;;;10.02;68.23;96246.38;5106110;28;20233;-73
2022/11/13 04:18:56;;;;;;;9.80;8.53;;;;;;;9.96;68.48;96246.03;5082784;28;20197;-74
2022/11/13 04:21:21;;;;;;;9.97;9.07;;;;;;;9.90;68.96;96242.94;5086679;28;20192;-70
2022/11/13 04:23:47;;;;;;;10.90;9.77;;;;;;;9.94;68.72;96239.13;5083521;28;20184;-70
2022/11/13 04:26:12;;;;;;;10.40;9.37;;;;;;;9.89;69.29;96246.53;5097598;28;20183;-71
2022/11/13 04:28:38;;;;;;;11.20;10.00;;;;;;;9.89;69.34;96250.91;5085615;28;20640;-69
2022/11/13 04:31:03;;;;;;;11.30;10.37;;;;;;;9.86;69.59;96245.91;5087045;28;20192;-68
2022/11/13 04:33:29;;;;;;;11.37;10.27;;;;;;;9.86;69.62;96243.28;5083280;28;20652;-74
2022/11/13 04:35:54;;;;;;;12.37;11.20;;;;;;;9.88;69.41;96244.00;5090000;28;20274;-68
2022/11/13 04:38:20;;;;;;;12.47;11.23;;;;;;;9.92;69.46;96250.69;5080559;28;20204;-69
2022/11/13 04:40:49;;;;;;;13.43;12.13;;;;;;;9.94;69.34;96254.88;5081848;28;20200;-70
2022/11/13 04:43:15;;;;;;;13.23;12.03;;;;;;;9.91;69.51;96249.00;5088302;28;20191;-70
2022/11/13 04:45:40;;;;;;;13.73;12.53;;;;;;;9.80;69.70;96233.25;5086429;28;20188;-67
2022/11/13 04:48:06;;;;;;;14.73;13.33;;;;;;;9.83;69.74;96251.38;5080644;28;20279;-68
2022/11/13 04:50:31;;;;;;;15.50;14.07;;;;;;;9.75;70.22;96236.22;5081289;28;20195;-70
2022/11/13 04:52:57;;;;;;;17.10;15.30;;;;;;;9.77;69.95;96236.09;5083400;28;20220;-70
2022/11/13 04:55:22;;;;;;;16.37;14.77;;;;;;;9.90;69.51;96237.66;5080279;28;20236;-70
2022/11/13 04:57:50;;;;;;;17.27;15.67;;;;;;;9.83;69.35;96239.09;5089586;28;20266;-67
2022/11/13 05:00:16;;;;;;;17.73;15.93;;;;;;;9.86;69.43;96251.16;5077807;28;20224;-68
2022/11/13 05:02:42;;;;;;;16.83;15.23;;;;;;;9.84;69.40;96248.66;5080512;28;20290;-74
2022/11/13 05:05:08;;;;;;;18.87;17.07;;;;;;;9.89;69.59;96250.91;5089565;28;20692;-77
2022/11/13 05:07:33;;;;;;;17.50;15.80;;;;;;;9.97;69.19;96242.44;5074415;28;20310;-72
2022/11/13 05:09:59;;;;;;;17.17;15.57;;;;;;;9.87;69.50;96242.34;5063946;28;20284;-74
2022/11/13 05:12:30;;;;;;;16.87;15.27;;;;;;;9.92;69.62;96261.22;5067946;28;20193;-69
2022/11/13 05:14:55;;;;;;;17.77;16.07;;;;;;;9.97;69.18;96252.94;5066727;28;20188;-75
2022/11/13 05:17:24;;;;;;;17.63;15.90;;;;;;;9.93;69.31;96250.56;5067791;28;20243;-73
2022/11/13 05:19:49;;;;;;;17.80;16.10;;;;;;;9.94;69.02;96246.16;5053341;28;20196;-73
2022/11/13 05:22:15;;;;;;;17.50;15.80;;;;;;;10.00;69.15;96255.38;5068213;28;20195;-68
2022/11/13 05:24:40;;;;;;;17.00;15.33;;;;;;;9.80;69.35;96251.63;5065069;28;21110;-73
2022/11/13 05:27:05;;;;;;;17.33;15.73;;;;;;;9.79;69.78;96244.72;5060672;28;20181;-69
2022/11/13 05:29:31;;;;;;;17.47;15.67;;;;;;;9.87;69.47;96250.22;5059194;28;20201;-71
2022/11/13 05:31:59;;;;;;;17.60;15.80;;;;;;;9.91;69.26;96255.09;5065846;28;20204;-72
2022/11/13 05:34:25;;;;;;;16.70;15.13;;;;;;;9.93;68.88;96253.19;5070095;28;20268;-72
2022/11/13 05:36:50;;;;;;;18.43;16.47;;;;;;;9.94;68.86;96247.00;5065743;28;20197;-71
2022/11/13 05:39:16;;;;;;;17.57;15.87;;;;;;;9.76;69.33;96240.53;5061992;28;20192;-69
2022/11/13 05:41:44;;;;;;;18.43;16.70;;;;;;;9.98;68.97;96252.03;5065404;28;20200;-71
2022/11/13 05:44:10;;;;;;;19.17;17.27;;;;;;;9.89;69.07;96250.91;5067127;28;20193;-69
2022/11/13 05:46:35;;;;;;;18.93;17.03;;;;;;;9.98;68.65;96259.91;5066846;28;20188;-74
2022/11/13 05:49:01;;;;;;;19.23;17.13;;;;;;;9.99;68.69;96269.44;5065347;28;20422;-69
2022/11/13 05:51:33;;;;;;;18.93;17.03;;;;;;;9.88;68.72;96271.09;5060577;28;20197;-72
2022/11/13 05:53:59;;;;;;;18.87;16.97;;;;;;;9.91;68.76;96281.38;5065030;28;20204;-75
2022/11/13 05:56:30;;;;;;;17.80;15.97;;;;;;;9.88;68.26;96265.84;5064756;28;20201;-74
2022/11/13 05:58:56;;;;;;;17.30;15.60;;;;;;;10.04;68.12;96275.19;5064753;28;20284;-74
2022/11/13 06:01:31;;;;;;;16.80;15.20;;;;;;;9.96;67.82;96272.31;5063809;28;20188;-70
2022/11/13 06:03:58;;;;;;;18.90;16.67;;;;;;;9.92;67.92;96279.59;5077064;28;20211;-73
2022/11/13 06:06:25;;;;;;;17.53;15.73;;;;;;;9.98;67.81;96280.94;5064917;28;21498;-75
2022/11/13 06:08:52;;;;;;;17.23;15.43;;;;;;;9.96;67.46;96278.41;5063915;28;20241;-69
2022/11/13 06:11:20;;;;;;;19.63;16.97;;;;;;;9.99;67.11;96274.69;5060017;28;20200;-69
2022/11/13 06:13:46;;;;;;;18.53;16.60;;;;;;;10.01;67.27;96280.69;5065006;28;20188;-72
2022/11/13 06:16:32;;;;;;;17.63;15.93;;;;;;;10.09;67.13;96287.03;5064187;28;20203;-76
2022/11/13 06:18:59;;;;;;;17.30;15.70;;;;;;;10.10;67.03;96285.22;5062466;28;20304;-74
2022/11/13 06:21:28;;;;;;;17.93;16.13;;;;;;;10.13;66.73;96275.34;5062748;28;20192;-76
2022/11/13 06:23:56;;;;;;;17.27;15.47;;;;;;;10.11;66.62;96271.97;5061981;28;20201;-73
2022/11/13 06:26:25;;;;;;;17.67;16.07;;;;;;;10.15;66.45;96278.66;5065668;28;20195;-72
2022/11/13 06:28:51;;;;;;;16.67;15.00;;;;;;;10.14;66.42;96277.00;5057996;28;20204;-69
2022/11/13 06:31:22;;;;;;;17.50;15.83;;;;;;;10.21;66.09;96287.88;5062963;28;20193;-69
2022/11/13 06:33:48;;;;;;;16.60;14.73;;;;;;;10.19;66.17;96268.75;5063648;28;20189;-70
2022/11/13 06:36:19;;;;;;;18.43;14.43;;;;;;;10.24;66.21;96289.44;5064047;28;20276;-71
2022/11/13 06:38:46;;;;;;;16.80;15.20;;;;;;;10.23;66.04;96298.25;5062022;28;20270;-71
2022/11/13 06:41:14;;;;;;;16.80;15.13;;;;;;;10.22;66.31;96286.09;5059023;28;20280;-65
2022/11/13 06:43:39;;;;;;;16.87;15.17;;;;;;;10.28;65.78;96289.09;5062808;28;20192;-65
2022/11/13 06:46:10;;;;;;;18.80;16.90;;;;;;;10.30;65.80;96289.81;5062650;28;20204;-71
2022/11/13 06:48:36;;;;;;;16.53;15.03;;;;;;;10.26;65.63;96290.13;5067231;28;20938;-68
2022/11/13 06:51:03;;;;;;;18.17;16.37;;;;;;;10.31;65.25;96288.84;5062024;28;20192;-68
2022/11/13 06:53:29;;;;;;;16.70;15.10;;;;;;;10.27;65.49;96273.44;5066144;28;20189;-70
2022/11/13 06:55:56;;;;;;;16.13;14.53;;;;;;;10.24;65.30;96276.31;5063503;28;20214;-69
2022/11/13 06:58:21;;;;;;;17.60;15.33;;;;;;;10.34;65.03;96275.50;5062941;28;20213;-68
2022/11/13 07:00:47;;;;;;;17.67;15.87;;;;;;;10.31;65.02;96280.13;5063661;28;20422;-73
2022/11/13 07:03:17;;;;;;;16.27;14.67;;;;;;;10.35;65.00;96278.97;5061335;28;20228;-71
2022/11/13 07:05:43;;;;;;;17.03;15.33;;;;;;;10.30;64.86;96278.47;5057332;28;20196;-74
2022/11/13 07:08:09;;;;;;;16.67;14.57;;;;;;;10.32;64.48;96279.19;5066985;28;20229;-71
2022/11/13 07:10:38;;;;;;;18.03;16.23;;;;;;;10.36;64.48;96280.63;5055861;28;20285;-72
2022/11/13 07:13:07;;;;;;;18.40;16.00;;;;;;;10.39;64.28;96277.75;5057871;28;20196;-71
2022/11/13 07:15:34;;;;;;;17.50;15.70;;;;;;;10.43;63.72;96284.44;5056773;28;20566;-68
2022/11/13 07:18:01;;;;;;;17.93;16.13;;;;;;;10.40;63.87;96289.97;5060919;28;20220;-71
2022/11/13 07:20:27;;;;;;;17.73;15.83;;;;;;;10.47;63.62;96291.13;5056426;28;20219;-71
2022/11/13 07:22:57;;;;;;;17.33;15.63;;;;;;;10.43;63.95;96284.44;5061418;28;20283;-71
2022/11/13 07:25:23;;;;;;;17.17;15.53;;;;;;;10.52;63.64;96290.78;5060404;28;20193;-72
2022/11/13 07:27:48;;;;;;;16.23;14.63;;;;;;;10.40;63.91;96289.09;5066794;28;20196;-72
2022/11/13 07:30:14;;;;;;;17.27;15.50;;;;;;;10.35;63.84;96289.47;5060613;28;20216;-71
2022/11/13 07:32:39;;;;;;;17.60;15.80;;;;;;;10.32;63.92;96281.84;5054802;28;20186;-73
2022/11/13 07:35:05;;;;;;;17.53;15.73;;;;;;;10.29;64.03;96285.53;5065360;28;20670;-72
2022/11/13 07:37:30;;;;;;;18.87;16.67;;;;;;;10.32;63.83;96276.56;5056352;28;20235;-72
2022/11/13 07:39:56;;;;;;;17.63;15.93;;;;;;;10.48;63.67;96282.31;5060248;28;20192;-70
2022/11/13 07:42:21;;;;;;;19.27;17.13;;;;;;;10.59;63.17;96282.28;5062707;28;20196;-71
2022/11/13 07:44:47;;;;;;;18.80;16.90;;;;;;;10.51;63.28;96278.59;5065181;28;20385;-71
2022/11/13 07:47:12;;;;;;;17.50;15.70;;;;;;;10.54;63.36;96288.88;5065309;28;20189;-72
2022/11/13 07:49:37;;;;;;;17.30;15.23;;;;;;;10.52;63.38;96294.25;5063262;28;20221;-71
2022/11/13 07:52:03;;;;;;;21.93;18.37;;;;;;;10.68;62.91;96290.41;5064611;28;20192;-69
2022/11/13 07:54:28;;;;;;;18.47;16.57;;;;;;;10.57;63.51;96286.00;5061334;28;20552;-70
2022/11/13 07:56:54;;;;;;;19.33;17.43;;;;;;;10.69;62.93;96297.34;5058925;28;20201;-71
2022/11/13 07:59:19;;;;;;;18.07;16.23;;;;;;;10.87;62.26;96295.06;5058367;28;20276;-72
2022/11/13 08:01:45;;;;;;;21.17;17.90;;;;;;;10.70;63.27;96299.03;5058838;28;20275;-70
2022/11/13 08:04:10;;;;;;;20.07;17.40;;;;;;;10.74;62.89;96296.00;5058968;28;20348;-71
2022/11/13 08:06:36;;;;;;;17.43;15.63;;;;;;;10.78;62.62;96304.53;5062376;28;20185;-70
2022/11/13 08:09:02;;;;;;;18.77;16.17;;;;;;;10.63;62.48;96295.19;5058363;28;20225;-70
2022/11/13 08:11:28;;;;;;;17.93;16.13;;;;;;;10.71;62.17;96290.16;5060860;28;20212;-71
2022/11/13 08:13:53;;;;;;;18.00;16.30;;;;;;;10.78;61.95;96286.94;5063766;28;20192;-71
2022/11/13 08:16:19;;;;;;;17.73;15.93;;;;;;;10.69;62.24;96290.31;5063012;28;20283;-70
2022/11/13 08:18:44;;;;;;;18.43;16.60;;;;;;;10.89;61.53;96287.88;5059062;28;20246;-71
2022/11/13 08:21:10;;;;;;;19.20;17.17;;;;;;;10.71;61.67;96279.66;5057493;28;20267;-71
2022/11/13 08:23:35;;;;;;;18.27;16.47;;;;;;;10.67;61.94;96284.31;5057533;28;20220;-70
2022/11/13 08:26:05;;;;;;;19.37;17.33;;;;;;;10.78;61.92;96288.72;5063019;28;20621;-70
2022/11/13 08:28:31;;;;;;;18.60;16.73;;;;;;;10.85;61.72;96295.16;5059722;28;20185;-70
2022/11/13 08:30:56;;;;;;;18.83;17.03;;;;;;;10.88;61.59;96287.06;5060862;28;20199;-70
2022/11/13 08:33:22;;;;;;;17.93;16.37;;;;;;;10.79;61.61;96285.13;5053168;28;20190;-70
2022/11/13 08:35:58;;;;;;;18.53;16.80;;;;;;;10.72;61.68;96286.56;5058067;28;20281;-70
2022/11/13 08:38:24;;;;;;;18.73;16.93;;;;;;;10.73;61.93;96290.88;5059821;28;20211;-70
2022/11/13 08:40:50;;;;;;;18.17;16.27;;;;;;;10.83;61.56;96286.56;5058711;28;20281;-70
2022/11/13 08:43:16;;;;;;;17.90;16.13;;;;;;;10.79;61.81;96298.28;5055618;28;21005;-70
2022/11/13 08:45:43;;;;;;;18.80;17.00;;;;;;;10.89;61.56;96290.50;5066350;28;20257;-70
2022/11/13 08:48:09;;;;;;;21.57;18.50;;;;;;;10.92;61.32;96298.97;5060912;28;20189;-70
2022/11/13 08:50:34;;;;;;;19.77;17.97;;;;;;;10.96;61.40;96294.31;5061375;28;20224;-71
2022/11/13 08:53:00;;;;;;;20.57;17.80;;;;;;;10.99;61.43;96294.09;5061847;28;20185;-71
2022/11/13 08:55:26;;;;;;;19.07;17.17;;;;;;;10.91;61.63;96299.13;5066899;28;20224;-71
2022/11/13 08:57:52;;;;;;;19.50;17.63;;;;;;;11.00;61.43;96304.47;5063118;28;20201;-71
2022/11/13 09:00:19;;;;;;;19.57;17.70;;;;;;;10.96;61.34;96300.44;5066237;28;20223;-72
2022/11/13 09:02:45;;;;;;;19.77;17.77;;;;;;;10.92;61.97;96309.50;5063249;28;20195;-71
2022/11/13 09:05:11;;;;;;;19.33;17.53;;;;;;;10.92;61.65;96298.16;5060632;28;20190;-72
2022/11/13 09:07:37;;;;;;;19.97;18.00;;;;;;;11.00;61.37;96303.63;5059387;28;20217;-71
2022/11/13 09:10:03;;;;;;;20.90;19.00;;;;;;;11.00;61.28;96312.38;5066264;28;20262;-71
2022/11/13 09:12:29;;;;;;;19.30;17.40;;;;;;;11.04;61.59;96310.34;5057930;28;20205;-71
2022/11/13 09:14:54;;;;;;;20.17;18.20;;;;;;;11.00;61.25;96303.63;5063310;28;20190;-71
2022/11/13 09:17:20;;;;;;;19.07;17.23;;;;;;;10.98;61.22;96303.75;5061929;28;20217;-70
2022/11/13 09:19:46;;;;;;;21.47;19.23;;;;;;;11.02;60.98;96301.72;5061418;28;20197;-71
2022/11/13 09:22:12;;;;;;;20.83;18.90;;;;;;;11.10;61.03;96299.31;5066876;28;20199;-71
2022/11/13 09:24:40;;;;;;;20.43;18.53;;;;;;;11.22;60.76;96305.38;5065397;28;20690;-71
2022/11/13 09:27:05;;;;;;;19.47;17.57;;;;;;;11.35;60.24;96305.22;5066216;28;20221;-71
2022/11/13 09:29:31;;;;;;;20.67;18.77;;;;;;;11.20;60.33;96297.63;5059865;28;20216;-71
2022/11/13 09:31:57;;;;;;;20.67;18.57;;;;;;;11.32;60.21;96295.78;5062277;28;20215;-70
2022/11/13 09:34:25;;;;;;;26.93;19.80;;;;;;;11.44;59.67;96294.78;5063734;28;20189;-70
2022/11/13 09:36:51;;;;;;;21.67;19.43;;;;;;;11.48;59.34;96275.13;5064482;28;20277;-70
2022/11/13 09:39:16;;;;;;;20.07;18.27;;;;;;;11.78;58.88;96302.53;5061716;28;20288;-71
2022/11/13 09:42:16;;;;;;;20.87;18.83;;;;;;;11.65;59.01;96296.59;5063866;28;20199;-71
2022/11/13 09:44:45;;;;;;;19.93;18.13;;;;;;;11.94;58.52;96293.38;5060309;28;20321;-70
2022/11/13 09:47:18;;;;;;;20.33;18.43;;;;;;;12.03;58.01;96293.44;5058760;28;20181;-71
2022/11/13 09:49:58;;;;;;;20.93;18.93;;;;;;;11.97;57.81;96282.56;5065647;28;20206;-70
2022/11/13 09:52:40;;;;;;;18.97;17.27;;;;;;;12.29;57.07;96280.66;5064822;28;20284;-71
2022/11/13 09:55:11;;;;;;;19.17;17.30;;;;;;;12.40;56.57;96276.28;5067316;28;20223;-71
2022/11/13 09:57:48;;;;;;;19.85;18.13;;;;;;;12.60;55.80;96272.75;5065076;28;20201;-71
2022/11/13 10:00:23;;;;;;;19.33;17.53;;;;;;;12.61;55.51;96263.84;5062537;28;20204;-71
2022/11/13 10:03:25;;;;;;;18.90;17.00;;;;;;;12.91;54.82;96272.69;5075031;28;20238;-70
2022/11/13 10:06:16;;;;;;;19.27;17.48;;;;;;;13.08;53.96;96264.13;5055935;28;20220;-71
2022/11/13 10:08:52;;;;;;;18.97;17.20;;;;;;;12.98;54.49;96269.38;5062657;28;20248;-71
2022/11/13 10:11:36;;;;;;;18.98;17.17;;;;;;;13.08;54.10;96268.56;5060785;28;20196;-71
2022/11/13 10:14:18;;;;;;;20.10;18.27;;;;;;;13.01;53.93;96261.19;5058583;28;20193;-71
2022/11/13 10:16:53;;;;;;;19.90;17.88;;;;;;;13.09;53.68;96262.31;5056546;28;20207;-71
2022/11/13 10:19:29;;;;;;;19.08;17.05;;;;;;;13.00;53.79;96269.25;5061066;28;20188;-71
2022/11/13 10:22:12;;;;;;;18.42;16.73;;;;;;;13.00;54.44;96264.81;5064291;28;20176;-72
2022/11/13 10:24:44;;;;;;;19.52;17.73;;;;;;;13.23;53.36;96257.47;5055379;28;20196;-70
2022/11/13 10:27:12;;;;;;;19.55;17.67;;;;;;;13.24;53.18;96250.38;5056980;28;20188;-71
2022/11/13 10:29:38;;;;;;;18.75;17.02;;;;;;;13.21;53.39;96250.66;5065865;28;20184;-72
2022/11/13 10:32:22;;;;;;;19.35;17.55;;;;;;;13.12;53.66;96254.94;5063574;28;20246;-70
2022/11/13 10:35:03;;;;;;;19.88;17.67;;;;;;;13.08;53.52;96236.88;5059080;28;20193;-73
2022/11/13 10:37:49;;;;;;;19.42;17.63;;;;;;;13.03;53.97;96253.97;5061688;28;20201;-73
2022/11/13 10:40:54;;;;;;;19.85;17.85;;;;;;;13.14;53.27;96245.09;5067024;28;20185;-72
2022/11/13 10:43:23;;;;;;;19.42;17.63;;;;;;;12.96;53.69;96230.88;5062777;28;20323;-72
2022/11/13 10:45:57;;;;;;;19.33;17.53;;;;;;;13.10;53.22;96234.97;5063312;28;20192;-72
2022/11/13 10:48:35;;;;;;;19.08;17.17;;;;;;;12.82;54.14;96240.03;5063410;28;20209;-73
2022/11/13 10:51:21;;;;;;;18.75;17.05;;;;;;;12.98;53.15;96236.88;5059462;28;20196;-72
2022/11/13 10:53:47;;;;;;;19.48;17.73;;;;;;;12.91;53.34;96233.09;5056822;28;20258;-72
2022/11/13 10:56:31;;;;;;;18.03;16.43;;;;;;;12.86;53.55;96225.59;5061659;28;20192;-73
2022/11/13 10:59:00;;;;;;;19.02;17.33;;;;;;;12.79;53.56;96225.28;5058780;28;20203;-72
2022/11/13 11:01:26;;;;;;;18.90;17.10;;;;;;;12.83;53.57;96230.31;5060570;28;20185;-72
2022/11/13 11:03:52;;;;;;;18.33;16.63;;;;;;;12.63;53.75;96224.16;5062986;28;20177;-72
2022/11/13 11:06:17;;;;;;;19.00;17.20;;;;;;;12.75;53.63;96218.63;5059555;28;20182;-73
2022/11/13 11:08:43;;;;;;;19.20;17.60;;;;;;;12.69;53.43;96207.78;5060306;28;20574;-73
2022/11/13 11:14:24;;;;;;;22.57;20.47;;;;;;;12.73;54.46;96222.38;5058330;28;20219;-73
2022/11/13 11:16:52;;;;;;;20.70;18.80;;;;;;;12.75;53.81;96209.84;5057288;28;20197;-73
2022/11/13 11:19:21;;;;;;;21.30;19.38;;;;;;;12.60;54.33;96209.44;5056515;28;20193;-72
2022/11/13 11:21:51;;;;;;;21.57;19.60;;;;;;;12.55;54.94;96219.53;5060496;28;20288;-73
2022/11/13 11:24:32;;;;;;;20.63;18.70;;;;;;;12.44;54.56;96203.81;5060919;28;20199;-71
2022/11/13 11:27:13;;;;;;;19.83;17.93;;;;;;;12.66;54.06;96219.44;5065665;28;20189;-68
2022/11/13 11:29:45;;;;;;;21.93;19.20;;;;;;;12.49;54.49;96209.53;5056962;28;20205;-68
2022/11/13 11:32:18;;;;;;;20.93;19.00;;;;;;;12.17;55.61;96212.34;5057193;28;20193;-70
2022/11/13 11:34:53;;;;;;;44.53;20.47;;;;;;;12.46;54.84;96197.44;5061306;28;20189;-64
2022/11/13 11:37:24;;;;;;;21.97;19.30;;;;;;;12.18;55.84;96206.91;5059602;28;20414;-63
2022/11/13 11:40:06;;;;;;;21.27;19.27;;;;;;;12.36;55.29;96196.56;5061601;28;20216;-71
2022/11/13 11:42:52;;;;;;;23.97;21.47;;;;;;;12.34;55.62;96203.78;5058150;28;20267;-71
2022/11/13 11:45:29;;;;;;;21.73;19.63;;;;;;;12.46;54.88;96201.91;5059971;28;20223;-69
2022/11/13 11:47:56;;;;;;;21.67;19.57;;;;;;;12.49;54.84;96202.44;5060737;28;20215;-69